Vendome Street — A8YI6 — position and weather

sailwx.info

Track history (hours):
 
Tides and Currents Weather Stations Pressure Air Temp Water Temp Dewpoint Dewpoint Depression Visibility Wind Speed Wind Dir Waves Ship Positions

Vendome Street

Last reported at 2017-May-13 04:44 UTC. Time now 2017-May-22 15:39 UTC.
Position N 18°21' W 061°37'.
Warning: this ship's position is 9 days out of date.

Length 177 m; draft 7.1 m.

Type: Ship. MMSI: 636015064.

Date/timePositionNaut miles runAvg speedWind from/ knotsBaromVisibWave heightAir tempDewpointWater temp
2017-May-13 04:44N 18°21' W 061°37'713.7
2017-May-13 04:12N 18°15' W 061°32'513.8
2017-May-13 03:50N 18°11' W 061°28'713.8
2017-May-13 03:18N 18°06' W 061°23'413.6
2017-May-13 03:00N 18°03' W 061°20'713.8
2017-May-13 02:31N 17°59' W 061°15'814.0
2017-May-13 01:55N 17°53' W 061°08'613.8
2017-May-13 01:30N 17°49' W 061°04'714.0
2017-May-13 01:00N 17°44' W 060°59'714.0
2017-May-13 00:30N 17°40' W 060°53'714.0
2017-May-13 00:00N 17°35' W 060°48'  
2017-May-08 17:23N 00°10' W 050°51'513.2
2017-May-08 16:59N 00°08' W 050°56'613.3
2017-May-08 16:30N 00°03' W 050°60'612.1
2017-May-08 16:00S 00°02' W 051°03'4 7.7
2017-May-08 15:30S 00°04' W 051°07'3 6.4
2017-May-08 15:00S 00°04' W 051°10'1 0.5
2017-May-08 13:57S 00°04' W 051°10'0 0.0
2017-May-08 13:27S 00°04' W 051°10'0 0.0
2017-May-08 12:57S 00°04' W 051°10'0 0.0
2017-May-08 12:27S 00°04' W 051°10'0 0.1
2017-May-08 11:57S 00°04' W 051°10'0 0.1
2017-May-08 11:27S 00°04' W 051°10'  
Track history (hours):
 
Tides and Currents Weather Stations Pressure Air Temp Water Temp Dewpoint Dewpoint Depression Visibility Wind Speed Wind Dir Waves Ship Positions

Vendome Street

Last reported at 2017-May-13 04:44 UTC. Time now 2017-May-22 15:39 UTC.
Position N 18°21' W 061°37'.
Warning: this ship's position is 9 days out of date.

Length 177 m; draft 7.1 m.

Type: Ship. MMSI: 636015064.

Date/timePositionNaut miles runAvg speedWind from/ knotsBaromVisibWave heightAir tempDewpointWater temp
2017-May-13 04:44N 18°21' W 061°37'713.7
2017-May-13 04:12N 18°15' W 061°32'513.8
2017-May-13 03:50N 18°11' W 061°28'713.8
2017-May-13 03:18N 18°06' W 061°23'413.6
2017-May-13 03:00N 18°03' W 061°20'713.8
2017-May-13 02:31N 17°59' W 061°15'814.0
2017-May-13 01:55N 17°53' W 061°08'613.8
2017-May-13 01:30N 17°49' W 061°04'714.0
2017-May-13 01:00N 17°44' W 060°59'714.0
2017-May-13 00:30N 17°40' W 060°53'714.0
2017-May-13 00:00N 17°35' W 060°48'  
2017-May-08 17:23N 00°10' W 050°51'513.2
2017-May-08 16:59N 00°08' W 050°56'613.3
2017-May-08 16:30N 00°03' W 050°60'612.1
2017-May-08 16:00S 00°02' W 051°03'4 7.7
2017-May-08 15:30S 00°04' W 051°07'3 6.4
2017-May-08 15:00S 00°04' W 051°10'1 0.5
2017-May-08 13:57S 00°04' W 051°10'0 0.0
2017-May-08 13:27S 00°04' W 051°10'0 0.0
2017-May-08 12:57S 00°04' W 051°10'0 0.0
2017-May-08 12:27S 00°04' W 051°10'0 0.1
2017-May-08 11:57S 00°04' W 051°10'0 0.1
2017-May-08 11:27S 00°04' W 051°10'  

Dump ship's entire track history